Terminal Aerodrome Forecast
Issued by NWS

Home | Current Version | Previous Version | Graphics & Text | Print | Product List | Glossary On
Versions: 1 2 3 4 5 6 7 8 9 10 11 12 13 14 15 16 17
000
FTUS43 KMPX 232320
TAFRWF
TAF
KRWF 232320Z 2400/2424 10007KT P6SM VCSH OVC060
     FM240900 13005KT P6SM VCSH SCT040 OVC050
     FM241200 10008KT 6SM -RA BR OVC035
     FM241700 12010KT 3SM -RA BR OVC020=

USA.gov is the U.S. government's official web portal to all federal, state and local government web resources and services.